createdAt,value
2019-03-03T00:01:03.978Z,87.52
2019-03-03T00:03:33.255Z,87.91
2019-03-03T00:06:02.384Z,88.04
2019-03-03T00:08:31.293Z,88.32
2019-03-03T00:11:00.341Z,88.66
2019-03-03T00:13:29.507Z,89.20
2019-03-03T00:15:58.492Z,89.36
2019-03-03T00:18:27.399Z,90.22
2019-03-03T00:20:56.499Z,91.15
2019-03-03T00:23:25.641Z,91.84
2019-03-03T00:25:54.825Z,91.76
2019-03-03T00:28:23.761Z,92.54
2019-03-03T00:30:52.799Z,92.81
2019-03-03T00:33:23.029Z,93.01
2019-03-03T00:35:51.822Z,92.94
2019-03-03T00:38:42.873Z,92.90
2019-03-03T00:41:39.656Z,92.89
2019-03-03T00:44:30.933Z,92.82
2019-03-03T00:47:20.934Z,92.85
2019-03-03T00:50:07.898Z,93.01
2019-03-03T00:52:59.885Z,92.80
2019-03-03T00:55:45.786Z,92.74
2019-03-03T00:58:23.781Z,93.14
2019-03-03T01:01:00.477Z,92.80
2019-03-03T01:03:40.276Z,92.93
2019-03-03T01:19:52.785Z,92.19
2019-03-03T01:22:39.728Z,92.03
2019-03-03T01:25:09.041Z,91.80
2019-03-03T01:27:38.381Z,91.61
2019-03-03T01:30:10.101Z,91.42
2019-03-03T01:32:38.934Z,91.18
2019-03-03T01:35:08.655Z,91.08
2019-03-03T01:37:37.594Z,91.25
2019-03-03T01:40:07.493Z,91.22
2019-03-03T01:42:36.595Z,90.99
2019-03-03T01:45:07.002Z,90.73
2019-03-03T01:47:36.252Z,90.26
2019-03-03T01:50:05.552Z,90.16
2019-03-03T01:52:34.483Z,90.00
2019-03-03T01:55:03.572Z,90.24
2019-03-03T01:57:32.424Z,89.93
2019-03-03T02:00:01.394Z,89.99
2019-03-03T02:02:30.894Z,90.02
2019-03-03T02:05:00.014Z,89.85
2019-03-03T02:07:28.999Z,89.50
2019-03-03T02:09:58.624Z,89.53
2019-03-03T02:12:27.620Z,89.48
2019-03-03T02:14:56.446Z,89.04
2019-03-03T02:17:25.466Z,89.19
2019-03-03T02:19:54.345Z,88.73
2019-03-03T02:22:23.192Z,88.72
2019-03-03T02:24:52.035Z,88.79
2019-03-03T02:27:20.935Z,87.93
2019-03-03T02:29:50.033Z,88.33
2019-03-03T02:32:19.076Z,87.90
2019-03-03T02:41:44.784Z,87.81
2019-03-03T02:56:01.009Z,87.01
2019-03-03T02:58:29.915Z,87.10
2019-03-03T03:05:01.129Z,86.78
2019-03-03T03:35:48.848Z,84.57
2019-03-03T03:39:11.485Z,83.97
2019-03-03T03:42:34.131Z,83.92
2019-03-03T03:45:37.102Z,83.65
2019-03-03T03:48:36.857Z,83.62
2019-03-03T04:00:51.462Z,82.97
2019-03-03T04:07:23.483Z,82.65
2019-03-03T04:33:56.599Z,81.52
2019-03-03T04:40:52.330Z,81.57
2019-03-03T05:13:59.287Z,83.96
2019-03-03T05:20:58.644Z,84.16
2019-03-03T05:28:06.476Z,84.34
2019-03-03T05:37:44.457Z,86.95
2019-03-03T05:47:17.346Z,88.86
2019-03-03T05:57:12.367Z,89.31
2019-03-03T06:11:57.145Z,91.94
2019-03-03T06:21:30.433Z,92.81
2019-03-03T06:34:11.831Z,94.04
2019-03-03T06:50:59.329Z,95.29
2019-03-03T06:53:28.547Z,95.33
2019-03-03T07:03:12.259Z,95.46
2019-03-03T07:10:00.231Z,95.97
2019-03-03T07:16:59.581Z,95.86
2019-03-03T07:26:24.580Z,95.87
2019-03-03T07:29:08.390Z,96.10
2019-03-03T07:38:22.894Z,96.21
2019-03-03T07:44:14.646Z,96.46
2019-03-03T07:46:43.583Z,96.47
2019-03-03T07:49:12.515Z,96.56
2019-03-03T07:51:41.644Z,96.72
2019-03-03T07:54:10.470Z,96.53
2019-03-03T07:56:39.256Z,96.54
2019-03-03T07:59:08.268Z,96.57
2019-03-03T08:01:37.357Z,96.39
2019-03-03T08:04:06.250Z,96.38
2019-03-03T08:06:35.575Z,96.35
2019-03-03T08:09:05.793Z,96.44
2019-03-03T08:11:34.661Z,96.53
2019-03-03T08:14:03.654Z,96.49
2019-03-03T08:16:32.475Z,96.68
2019-03-03T08:19:01.295Z,96.84
2019-03-03T08:21:30.394Z,96.82
2019-03-03T08:23:59.366Z,96.81
2019-03-03T08:26:28.170Z,96.73
2019-03-03T08:28:57.450Z,96.53
2019-03-03T08:31:26.694Z,96.66
2019-03-03T08:33:55.806Z,96.65
2019-03-03T08:36:25.228Z,96.52
2019-03-03T08:38:54.139Z,96.49
2019-03-03T08:41:23.233Z,96.62
2019-03-03T08:44:05.829Z,96.53
2019-03-03T08:46:53.703Z,96.75
2019-03-03T08:49:41.677Z,96.45
2019-03-03T08:52:32.618Z,96.54
2019-03-03T08:55:18.990Z,96.42
2019-03-03T08:58:06.485Z,96.68
2019-03-03T09:01:09.701Z,96.83
2019-03-03T09:04:03.300Z,96.66
2019-03-03T09:06:43.623Z,96.91
2019-03-03T09:09:34.318Z,96.94
2019-03-03T09:12:21.868Z,97.14
2019-03-03T09:15:25.668Z,97.06
2019-03-03T09:18:02.069Z,97.70
2019-03-03T09:20:46.151Z,97.25
2019-03-03T09:23:37.179Z,97.25
2019-03-03T09:26:25.250Z,97.35
2019-03-03T09:29:19.210Z,97.39
2019-03-03T09:32:09.163Z,100.00
2019-03-03T09:35:00.070Z,100.00
2019-03-03T09:37:37.591Z,98.30
2019-03-03T09:40:32.274Z,97.81
2019-03-03T09:43:26.065Z,97.65
2019-03-03T09:46:13.813Z,97.63
2019-03-03T09:48:52.251Z,97.56
2019-03-03T09:51:36.015Z,97.35
2019-03-03T09:54:36.178Z,97.32
2019-03-03T09:57:23.061Z,97.37
2019-03-03T09:59:58.854Z,97.19
2019-03-03T10:02:41.917Z,97.44
2019-03-03T10:05:37.023Z,97.28
2019-03-03T10:08:21.569Z,97.20
2019-03-03T10:11:08.275Z,97.21
2019-03-03T10:14:05.147Z,97.31
2019-03-03T10:16:45.831Z,97.15
2019-03-03T10:19:23.880Z,96.92
2019-03-03T10:22:11.327Z,97.05
2019-03-03T10:24:59.497Z,97.15
2019-03-03T10:27:38.371Z,97.45
2019-03-03T10:30:34.450Z,97.32
2019-03-03T10:33:20.596Z,96.92
2019-03-03T10:36:13.174Z,97.03
2019-03-03T10:38:54.355Z,97.26
2019-03-03T10:41:48.230Z,97.39
2019-03-03T10:44:39.126Z,97.79
2019-03-03T10:47:26.592Z,97.75
2019-03-03T10:50:01.245Z,97.88
2019-03-03T10:53:01.549Z,97.41
2019-03-03T10:55:42.440Z,97.10
2019-03-03T10:58:30.412Z,97.05
2019-03-03T11:01:24.598Z,96.95
2019-03-03T11:04:11.613Z,96.77
2019-03-03T11:06:58.362Z,96.44
2019-03-03T11:09:58.640Z,96.50
2019-03-03T11:12:41.850Z,96.49
2019-03-03T11:15:24.730Z,96.41
2019-03-03T11:18:09.001Z,96.48
2019-03-03T11:21:00.018Z,96.41
2019-03-03T11:23:49.507Z,96.17
2019-03-03T11:26:28.780Z,96.55
2019-03-03T11:29:22.662Z,96.54
2019-03-03T11:32:13.411Z,96.75
2019-03-03T11:35:00.069Z,96.25
2019-03-03T11:37:37.929Z,96.39
2019-03-03T11:40:25.481Z,96.29
2019-03-03T11:43:07.210Z,96.38
2019-03-03T11:46:07.292Z,96.76
2019-03-03T11:48:45.085Z,96.70
2019-03-03T11:51:32.988Z,96.55
2019-03-03T11:54:10.196Z,96.71
2019-03-03T11:56:46.336Z,96.78
2019-03-03T11:59:32.526Z,96.91
2019-03-03T12:02:21.047Z,97.08
2019-03-03T12:05:02.320Z,97.16
2019-03-03T12:07:59.438Z,97.18
2019-03-03T12:10:53.766Z,97.42
2019-03-03T12:13:53.837Z,97.40
2019-03-03T12:16:51.679Z,97.36
2019-03-03T12:19:38.597Z,97.64
2019-03-03T12:22:15.035Z,97.76
2019-03-03T12:24:57.647Z,97.53
2019-03-03T12:27:48.458Z,97.63
2019-03-03T12:30:50.575Z,97.86
2019-03-03T12:33:47.386Z,97.64
2019-03-03T12:36:22.365Z,97.75
2019-03-03T12:38:56.565Z,97.82
2019-03-03T12:41:42.962Z,97.88
2019-03-03T12:44:29.133Z,97.96
2019-03-03T12:47:08.105Z,98.07
2019-03-03T12:49:43.643Z,98.01
2019-03-03T12:52:23.141Z,97.95
2019-03-03T12:55:10.992Z,98.05
2019-03-03T12:57:59.075Z,97.61
2019-03-03T13:00:50.394Z,97.68
2019-03-03T13:03:50.339Z,97.58
2019-03-03T13:06:41.468Z,97.55
2019-03-03T13:09:35.248Z,97.37
2019-03-03T13:12:11.434Z,96.70
2019-03-03T13:14:57.926Z,96.86
2019-03-03T13:17:48.425Z,97.21
2019-03-03T13:20:24.517Z,97.45
2019-03-03T13:23:15.567Z,97.74
2019-03-03T13:26:18.277Z,97.70
2019-03-03T13:29:11.259Z,97.76
2019-03-03T13:31:50.189Z,97.97
2019-03-03T13:34:39.679Z,98.21
2019-03-03T13:37:33.917Z,98.09
2019-03-03T13:40:20.274Z,98.01
2019-03-03T13:42:56.630Z,97.97
2019-03-03T13:45:28.212Z,97.94
2019-03-03T13:47:57.454Z,97.97
2019-03-03T13:50:26.327Z,98.03
2019-03-03T13:52:55.303Z,98.19
2019-03-03T13:55:24.276Z,98.20
2019-03-03T13:57:54.076Z,97.92
2019-03-03T14:00:23.389Z,97.79
2019-03-03T14:02:52.500Z,97.66
2019-03-03T14:05:23.067Z,97.35
2019-03-03T14:07:52.501Z,97.28
2019-03-03T14:10:21.301Z,97.14
2019-03-03T14:12:50.465Z,97.08
2019-03-03T14:15:19.761Z,97.21
2019-03-03T14:17:49.122Z,97.24
2019-03-03T14:20:19.966Z,97.35
2019-03-03T14:22:49.178Z,97.21
2019-03-03T14:25:18.358Z,97.05
2019-03-03T14:27:47.341Z,97.33
2019-03-03T14:30:19.363Z,97.41
2019-03-03T14:32:48.451Z,97.51
2019-03-03T14:35:17.320Z,97.73
2019-03-03T14:37:46.482Z,98.04
2019-03-03T14:40:16.717Z,98.07
2019-03-03T14:42:45.781Z,98.45
2019-03-03T14:45:16.356Z,98.30
2019-03-03T14:47:45.699Z,98.28
2019-03-03T14:50:15.838Z,98.16
2019-03-03T14:52:45.249Z,98.34
2019-03-03T14:55:15.642Z,98.40
2019-03-03T14:57:44.864Z,98.41
2019-03-03T15:00:21.104Z,98.26
2019-03-03T15:02:50.196Z,98.49
2019-03-03T15:05:19.116Z,98.30
2019-03-03T15:07:48.195Z,98.53
2019-03-03T15:10:17.248Z,98.67
2019-03-03T15:12:46.812Z,98.57
2019-03-03T15:15:16.591Z,98.60
2019-03-03T15:17:45.561Z,98.76
2019-03-03T15:20:15.330Z,98.60
2019-03-03T15:22:44.372Z,98.72
2019-03-03T15:25:14.204Z,99.20
2019-03-03T15:27:43.421Z,99.01
2019-03-03T15:30:14.871Z,99.03
2019-03-03T15:32:43.886Z,98.90
2019-03-03T15:35:12.113Z,99.23
2019-03-03T15:37:41.158Z,98.97
2019-03-03T15:40:11.125Z,99.14
2019-03-03T15:42:40.372Z,99.14
2019-03-03T15:45:11.542Z,99.13
2019-03-03T15:47:40.847Z,98.97
2019-03-03T15:50:10.529Z,98.84
2019-03-03T15:52:39.950Z,99.09
2019-03-03T15:55:10.473Z,99.13
2019-03-03T15:57:39.783Z,99.01
2019-03-03T16:00:12.753Z,98.83
2019-03-03T16:02:41.856Z,99.11
2019-03-03T16:05:10.960Z,99.13
2019-03-03T16:07:40.170Z,98.91
2019-03-03T16:10:10.346Z,98.91
2019-03-03T16:12:39.238Z,98.93
2019-03-03T16:15:10.169Z,99.01
2019-03-03T16:17:39.305Z,98.83
2019-03-03T16:20:09.861Z,99.32
2019-03-03T16:22:39.092Z,99.28
2019-03-03T16:25:08.985Z,99.22
2019-03-03T16:27:38.006Z,99.22
2019-03-03T16:30:09.698Z,99.40
2019-03-03T16:32:38.577Z,99.31
2019-03-03T16:35:07.922Z,99.27
2019-03-03T16:37:37.082Z,99.21
2019-03-03T16:40:07.416Z,99.21
2019-03-03T16:42:36.559Z,99.21
2019-03-03T16:45:05.876Z,99.27
2019-03-03T16:47:34.845Z,99.54
2019-03-03T16:50:04.626Z,99.55
2019-03-03T16:52:33.515Z,99.59
2019-03-03T16:55:03.008Z,99.46
2019-03-03T16:57:31.852Z,99.47
2019-03-03T17:00:00.711Z,99.70
2019-03-03T17:02:29.669Z,99.67
2019-03-03T17:04:58.524Z,99.68
2019-03-03T17:07:27.585Z,99.67
2019-03-03T17:09:56.921Z,99.61
2019-03-03T17:12:26.102Z,99.63
2019-03-03T17:14:55.950Z,99.41
2019-03-03T17:17:24.902Z,99.46
2019-03-03T17:19:54.150Z,99.53
2019-03-03T17:22:23.042Z,99.29
2019-03-03T17:24:52.016Z,99.37
2019-03-03T17:27:21.385Z,99.56
2019-03-03T17:29:50.182Z,99.34
2019-03-03T17:32:19.038Z,99.25
2019-03-03T17:34:47.892Z,99.14
2019-03-03T17:37:16.992Z,99.48
2019-03-03T17:39:47.347Z,99.50
2019-03-03T17:42:17.261Z,99.40
2019-03-03T17:44:46.357Z,99.33
2019-03-03T17:47:15.479Z,99.11
2019-03-03T17:49:46.569Z,98.88
2019-03-03T17:52:15.181Z,98.64
2019-03-03T17:54:44.129Z,98.13
2019-03-03T17:57:13.391Z,98.35
2019-03-03T17:59:42.477Z,98.39
2019-03-03T18:02:12.146Z,98.50
2019-03-03T18:04:41.274Z,98.15
2019-03-03T18:07:10.354Z,98.12
2019-03-03T18:09:39.287Z,97.91
2019-03-03T18:12:08.338Z,98.03
2019-03-03T18:14:37.221Z,98.08
2019-03-03T18:17:06.244Z,97.88
2019-03-03T18:19:35.175Z,97.79
2019-03-03T18:22:04.355Z,97.66
2019-03-03T18:24:33.479Z,97.79
2019-03-03T18:27:05.528Z,98.07
2019-03-03T18:29:38.025Z,97.96
2019-03-03T18:32:10.866Z,98.12
2019-03-03T18:34:39.804Z,98.05
2019-03-03T18:37:09.782Z,97.63
2019-03-03T18:39:39.262Z,97.73
2019-03-03T18:42:09.581Z,97.71
2019-03-03T18:44:38.735Z,97.66
2019-03-03T18:47:18.942Z,97.85
2019-03-03T18:49:48.348Z,97.66
2019-03-03T18:52:21.851Z,97.53
2019-03-03T18:55:11.846Z,97.65
2019-03-03T18:57:41.989Z,97.77
2019-03-03T19:00:22.677Z,97.85
2019-03-03T19:02:59.281Z,97.54
2019-03-03T19:05:28.552Z,97.42
2019-03-03T19:08:07.536Z,97.73
2019-03-03T19:10:37.766Z,97.84
2019-03-03T19:13:07.100Z,97.79
2019-03-03T19:16:46.378Z,97.59
2019-03-03T19:19:20.547Z,97.53
2019-03-03T19:21:50.793Z,97.62
2019-03-03T19:24:41.385Z,97.35
2019-03-03T19:27:10.580Z,97.27
2019-03-03T19:29:40.004Z,96.97
2019-03-03T19:32:09.070Z,96.60
2019-03-03T19:39:05.025Z,97.33
2019-03-03T19:41:34.177Z,97.23
2019-03-03T19:44:04.601Z,97.39
2019-03-03T19:46:37.315Z,97.59
2019-03-03T19:49:11.846Z,97.42
2019-03-03T19:51:42.019Z,97.62
2019-03-03T19:54:14.460Z,97.21
2019-03-03T19:56:43.500Z,97.39
2019-03-03T19:59:15.797Z,97.41
2019-03-03T20:01:45.290Z,97.17
2019-03-03T20:04:14.802Z,97.28
2019-03-03T20:07:38.649Z,97.35
2019-03-03T20:10:20.677Z,97.54
2019-03-03T20:12:50.078Z,97.61
2019-03-03T20:15:20.199Z,97.76
2019-03-03T20:18:07.377Z,97.83
2019-03-03T20:20:36.482Z,97.19
2019-03-03T20:23:06.152Z,97.21
2019-03-03T20:25:35.437Z,97.06
2019-03-03T20:28:06.196Z,97.42
2019-03-03T20:30:37.254Z,97.48
2019-03-03T20:33:06.348Z,97.39
2019-03-03T20:35:35.928Z,97.39
2019-03-03T20:38:05.112Z,97.28
2019-03-03T20:40:34.657Z,97.30
2019-03-03T20:43:03.635Z,97.18
2019-03-03T20:45:33.275Z,97.33
2019-03-03T20:48:02.582Z,97.44
2019-03-03T20:50:31.504Z,96.92
2019-03-03T20:53:01.050Z,96.94
2019-03-03T20:55:30.237Z,97.14
2019-03-03T20:57:59.307Z,97.23
2019-03-03T21:00:31.114Z,97.36
2019-03-03T21:03:00.073Z,97.03
2019-03-03T21:05:29.481Z,97.09
2019-03-03T21:07:58.611Z,97.29
2019-03-03T21:10:27.717Z,96.96
2019-03-03T21:12:57.771Z,96.74
2019-03-03T21:15:27.263Z,96.89
2019-03-03T21:17:56.558Z,96.95
2019-03-03T21:20:25.782Z,96.78
2019-03-03T21:22:55.165Z,95.98
2019-03-03T21:25:27.747Z,96.24
2019-03-03T21:27:57.272Z,96.26
2019-03-03T21:30:26.565Z,96.00
2019-03-03T21:32:56.596Z,96.08
2019-03-03T21:35:28.139Z,95.78
2019-03-03T21:37:59.008Z,95.26
2019-03-03T21:40:28.498Z,95.02
2019-03-03T21:42:57.566Z,94.94
2019-03-03T21:45:27.313Z,94.49
2019-03-03T21:47:56.642Z,94.40
2019-03-03T21:50:25.884Z,94.36
2019-03-03T21:52:55.161Z,94.54
2019-03-03T21:55:25.319Z,94.54
2019-03-03T21:57:54.924Z,94.34
2019-03-03T22:00:27.184Z,94.25
2019-03-03T22:02:56.960Z,94.00
2019-03-03T22:05:26.088Z,94.26
2019-03-03T22:07:55.561Z,93.88
2019-03-03T22:10:32.125Z,93.47
2019-03-03T22:13:06.712Z,92.71
2019-03-03T22:15:36.205Z,93.14
2019-03-03T22:18:05.732Z,93.02
2019-03-03T22:20:35.071Z,93.12
2019-03-03T22:23:04.737Z,92.93
2019-03-03T22:25:35.494Z,92.61
2019-03-03T22:28:05.421Z,92.06
2019-03-03T22:30:35.865Z,92.42
2019-03-03T22:33:04.839Z,91.80
2019-03-03T22:35:34.018Z,91.64
2019-03-03T22:38:04.072Z,91.65
2019-03-03T22:40:33.164Z,91.95
2019-03-03T22:43:02.384Z,92.49
2019-03-03T22:45:31.614Z,91.45
2019-03-03T22:48:00.705Z,91.05
2019-03-03T22:50:29.907Z,92.25
2019-03-03T22:52:59.344Z,92.22
2019-03-03T22:55:29.965Z,92.01
2019-03-03T22:57:59.601Z,91.97
2019-03-03T23:00:49.244Z,91.65
2019-03-03T23:03:22.177Z,91.85
2019-03-03T23:06:36.158Z,92.06
2019-03-03T23:10:04.048Z,91.57
2019-03-03T23:12:59.897Z,91.37
2019-03-03T23:15:55.937Z,91.28
2019-03-03T23:18:56.604Z,90.90
2019-03-03T23:22:14.679Z,91.22
2019-03-03T23:27:52.264Z,91.12
2019-03-03T23:30:26.787Z,90.66
2019-03-03T23:32:59.140Z,89.89
2019-03-03T23:35:30.074Z,90.83
2019-03-03T23:38:09.716Z,89.25
2019-03-03T23:40:45.829Z,89.21
2019-03-03T23:43:15.362Z,89.05
2019-03-03T23:45:44.623Z,90.01
2019-03-03T23:48:14.457Z,90.65
2019-03-03T23:50:43.793Z,90.22
2019-03-03T23:53:13.060Z,90.44
2019-03-03T23:55:42.453Z,89.94
2019-03-03T23:58:11.565Z,89.77
